Time;durP1;ratioP1;P1;durP2;ratioP2;P2;SDS_P1;SDS_P2;PMS_P1;PMS_P2;Temp;Humidity;BMP_temperature;BMP_pressure;BME280_temperature;BME280_humidity;BME280_pressure;Samples;Min_cycle;Max_cycle;Signal;HPM_P1;HPM_P2
2023/10/30 00:02:01;;;;;;;1.50;1.40;;;19.10;65.40;;;;;;5065010;28;20583;-49
2023/10/30 00:04:26;;;;;;;2.70;1.30;;;19.10;65.40;;;;;;5065688;28;20682;-50
2023/10/30 00:06:52;;;;;;;1.60;1.50;;;19.10;65.20;;;;;;5055401;28;20188;-52
2023/10/30 00:09:17;;;;;;;1.60;1.50;;;19.10;65.20;;;;;;5060047;28;20754;-48
2023/10/30 00:11:43;;;;;;;1.67;1.57;;;18.90;65.30;;;;;;5057565;28;20192;-49
2023/10/30 00:14:08;;;;;;;1.67;1.57;;;18.90;65.60;;;;;;5065302;28;20259;-50
2023/10/30 00:16:34;;;;;;;1.50;1.40;;;19.00;65.30;;;;;;5056817;28;20226;-51
2023/10/30 00:19:02;;;;;;;2.20;1.80;;;19.10;65.10;;;;;;5064080;28;20215;-48
2023/10/30 00:21:28;;;;;;;1.50;1.30;;;19.20;64.80;;;;;;5069346;28;20534;-50
2023/10/30 00:23:53;;;;;;;1.90;1.67;;;19.20;64.40;;;;;;5059586;28;20522;-50
2023/10/30 00:26:19;;;;;;;2.07;1.50;;;19.20;64.40;;;;;;5066804;28;20198;-51
2023/10/30 00:28:44;;;;;;;1.80;1.70;;;19.10;64.90;;;;;;5057999;28;20208;-53
2023/10/30 00:31:10;;;;;;;1.53;1.43;;;18.90;65.70;;;;;;5063962;28;20180;-49
2023/10/30 00:33:36;;;;;;;1.60;1.50;;;18.80;66.10;;;;;;5061602;28;20221;-51
2023/10/30 00:36:01;;;;;;;2.83;1.60;;;18.70;66.30;;;;;;5064926;28;20191;-51
2023/10/30 00:38:27;;;;;;;1.77;1.67;;;18.80;66.60;;;;;;5069609;28;20454;-51
2023/10/30 00:40:53;;;;;;;3.77;1.70;;;18.90;66.00;;;;;;5062151;28;20191;-52
2023/10/30 00:43:19;;;;;;;1.80;1.70;;;18.90;65.80;;;;;;5058907;28;20216;-52
2023/10/30 00:45:45;;;;;;;1.90;1.80;;;19.00;65.80;;;;;;5057869;28;20497;-49
2023/10/30 00:48:10;;;;;;;1.87;1.30;;;19.00;65.80;;;;;;5057515;28;20261;-50
2023/10/30 00:50:36;;;;;;;1.80;1.70;;;19.10;66.00;;;;;;5060380;28;20450;-51
2023/10/30 00:53:01;;;;;;;1.60;1.50;;;19.10;65.70;;;;;;5058576;28;20191;-51
2023/10/30 00:55:27;;;;;;;1.60;1.50;;;19.10;65.70;;;;;;5062675;28;21061;-47
2023/10/30 00:57:53;;;;;;;1.80;1.70;;;19.00;65.80;;;;;;5061892;28;20180;-51
2023/10/30 01:00:18;;;;;;;2.23;2.00;;;19.00;65.80;;;;;;5068760;28;20263;-53
2023/10/30 01:02:44;;;;;;;3.07;1.70;;;19.00;65.80;;;;;;5060613;28;20223;-50
2023/10/30 01:05:10;;;;;;;2.10;1.90;;;19.00;65.90;;;;;;5060036;28;20261;-52
2023/10/30 01:07:36;;;;;;;2.33;2.00;;;18.70;66.10;;;;;;5061237;28;20976;-51
2023/10/30 01:10:01;;;;;;;3.07;2.17;;;18.60;66.70;;;;;;5062896;28;20271;-52
2023/10/30 01:12:27;;;;;;;2.23;2.03;;;18.70;66.80;;;;;;5060153;28;20180;-50
2023/10/30 01:14:52;;;;;;;2.37;2.20;;;18.70;66.70;;;;;;5062694;28;20382;-50
2023/10/30 01:17:18;;;;;;;2.60;2.40;;;18.70;66.50;;;;;;5061115;28;20179;-49
2023/10/30 01:19:44;;;;;;;2.53;2.33;;;18.60;67.00;;;;;;5066835;28;20302;-50
2023/10/30 01:22:09;;;;;;;2.47;2.27;;;18.60;67.20;;;;;;5064728;28;20223;-54
2023/10/30 01:24:35;;;;;;;2.33;2.00;;;18.60;67.20;;;;;;5057158;28;20184;-50
2023/10/30 01:27:00;;;;;;;2.40;1.83;;;18.60;67.10;;;;;;5060013;28;20622;-49
2023/10/30 01:29:26;;;;;;;3.83;1.80;;;18.50;67.60;;;;;;5064779;28;20212;-53
2023/10/30 01:31:51;;;;;;;1.77;1.67;;;18.50;68.00;;;;;;5067295;28;20668;-52
2023/10/30 01:34:17;;;;;;;1.47;1.37;;;18.50;67.90;;;;;;5063881;28;20713;-56
2023/10/30 01:36:43;;;;;;;2.43;1.53;;;18.50;67.50;;;;;;5057717;28;20265;-53
2023/10/30 01:39:08;;;;;;;3.27;1.37;;;18.50;67.70;;;;;;5066653;28;20697;-49
2023/10/30 01:41:34;;;;;;;1.90;1.27;;;18.40;67.80;;;;;;5059842;28;21156;-50
2023/10/30 01:43:59;;;;;;;1.40;1.30;;;18.40;68.30;;;;;;5064400;28;20671;-52
2023/10/30 01:46:25;;;;;;;1.60;1.50;;;18.30;68.40;;;;;;5058267;28;20184;-50
2023/10/30 01:48:51;;;;;;;1.70;1.60;;;18.20;68.50;;;;;;5061928;28;20223;-54
2023/10/30 01:51:17;;;;;;;1.23;1.13;;;18.30;68.60;;;;;;5060140;28;20343;-54
2023/10/30 01:53:43;;;;;;;1.97;1.13;;;18.40;68.40;;;;;;5067085;28;20979;-53
2023/10/30 01:56:10;;;;;;;1.40;1.30;;;18.40;68.00;;;;;;5068404;28;20426;-52
2023/10/30 01:58:36;;;;;;;1.40;1.30;;;18.50;68.00;;;;;;5068007;28;20482;-53
2023/10/30 02:01:02;;;;;;;1.30;1.20;;;18.50;68.00;;;;;;5058604;28;20936;-52
2023/10/30 02:03:27;;;;;;;1.10;1.10;;;18.60;67.90;;;;;;5057327;28;20536;-54
2023/10/30 02:05:54;;;;;;;1.07;0.97;;;18.60;67.80;;;;;;5066047;28;20184;-51
2023/10/30 02:08:20;;;;;;;1.17;1.07;;;18.60;67.90;;;;;;5059510;28;20219;-50
2023/10/30 02:10:46;;;;;;;1.60;1.40;;;18.60;67.80;;;;;;5060123;28;20430;-55
2023/10/30 02:13:11;;;;;;;1.70;1.60;;;18.60;68.00;;;;;;5056943;28;20434;-52
2023/10/30 02:15:37;;;;;;;1.47;1.30;;;18.60;68.20;;;;;;5058543;28;20530;-51
2023/10/30 02:18:03;;;;;;;1.93;1.27;;;18.60;68.30;;;;;;5059007;28;20253;-48
2023/10/30 02:20:29;;;;;;;2.77;1.33;;;18.60;68.40;;;;;;5060219;28;20192;-48
2023/10/30 02:22:54;;;;;;;1.43;1.10;;;18.60;68.10;;;;;;5056360;28;20513;-51
2023/10/30 02:25:22;;;;;;;1.73;1.40;;;18.20;69.10;;;;;;5067259;28;20184;-51
2023/10/30 02:27:49;;;;;;;1.20;1.10;;;18.30;69.40;;;;;;5064242;28;20187;-50
2023/10/30 02:30:14;;;;;;;1.70;1.40;;;18.40;69.30;;;;;;5056745;28;20463;-50
2023/10/30 02:32:44;;;;;;;1.20;1.10;;;18.40;69.20;;;;;;5064640;28;20526;-51
2023/10/30 02:35:15;;;;;;;2.50;1.50;;;18.50;69.30;;;;;;5066871;28;20187;-50
2023/10/30 02:37:41;;;;;;;1.37;1.27;;;18.50;69.00;;;;;;5062991;28;20536;-48
2023/10/30 02:40:07;;;;;;;1.60;1.50;;;18.50;68.80;;;;;;5064947;28;20450;-49
2023/10/30 02:42:33;;;;;;;1.60;1.50;;;18.50;69.30;;;;;;5064881;28;20484;-50
2023/10/30 02:44:59;;;;;;;2.23;2.03;;;18.50;68.50;;;;;;5064699;28;20462;-50
2023/10/30 02:47:25;;;;;;;2.10;1.90;;;18.30;68.70;;;;;;5064368;28;20195;-50
2023/10/30 02:49:51;;;;;;;2.10;1.80;;;18.10;70.20;;;;;;5066809;28;20192;-50
2023/10/30 02:52:18;;;;;;;2.00;1.80;;;18.00;69.70;;;;;;5065092;28;20191;-49
2023/10/30 02:54:44;;;;;;;1.73;1.60;;;17.70;70.90;;;;;;5065151;28;20457;-54
2023/10/30 02:57:09;;;;;;;5.07;1.70;;;17.60;72.00;;;;;;5062651;28;20448;-50
2023/10/30 02:59:35;;;;;;;1.70;1.53;;;17.60;71.70;;;;;;5067221;28;21106;-51
2023/10/30 03:02:02;;;;;;;1.67;1.57;;;17.60;71.80;;;;;;5062144;28;20222;-50
2023/10/30 03:04:28;;;;;;;1.30;1.20;;;17.60;71.30;;;;;;5068374;28;20188;-50
2023/10/30 03:06:54;;;;;;;1.83;1.50;;;17.70;71.30;;;;;;5063261;28;20431;-51
2023/10/30 03:09:20;;;;;;;1.40;1.30;;;17.60;71.20;;;;;;5062488;28;21027;-52
2023/10/30 03:11:45;;;;;;;2.10;1.53;;;17.50;71.00;;;;;;5063938;28;20207;-49
2023/10/30 03:14:11;;;;;;;2.37;1.83;;;17.40;71.50;;;;;;5065546;28;20164;-49
2023/10/30 03:16:36;;;;;;;1.47;1.23;;;17.50;71.80;;;;;;5063713;28;20184;-50
2023/10/30 03:19:02;;;;;;;2.10;1.17;;;17.40;71.70;;;;;;5064964;28;20202;-49
2023/10/30 03:21:27;;;;;;;2.90;2.17;;;17.30;72.40;;;;;;5066119;28;20194;-50
2023/10/30 03:23:53;;;;;;;1.80;1.70;;;17.20;72.90;;;;;;5067175;28;20219;-48
2023/10/30 03:26:18;;;;;;;2.17;1.53;;;17.00;73.50;;;;;;5057948;28;20196;-51
2023/10/30 03:28:44;;;;;;;1.90;1.70;;;17.00;74.20;;;;;;5063204;28;20235;-49
2023/10/30 03:31:09;;;;;;;1.60;1.50;;;17.20;73.50;;;;;;5062275;28;20266;-50
2023/10/30 03:33:35;;;;;;;1.90;1.70;;;17.40;72.50;;;;;;5063368;28;20203;-49
2023/10/30 03:36:03;;;;;;;2.20;1.60;;;17.50;72.10;;;;;;5062926;28;20215;-48
2023/10/30 03:38:28;;;;;;;1.70;1.60;;;17.60;71.60;;;;;;5062902;28;20457;-51
2023/10/30 03:40:54;;;;;;;2.53;1.30;;;17.70;71.30;;;;;;5056106;28;20438;-52
2023/10/30 03:43:19;;;;;;;2.53;1.87;;;17.60;71.50;;;;;;5060341;28;20248;-47
2023/10/30 03:45:45;;;;;;;2.73;1.37;;;17.60;71.30;;;;;;5064587;28;20553;-50
2023/10/30 03:48:11;;;;;;;1.90;1.80;;;17.70;71.30;;;;;;5059870;28;20221;-51
2023/10/30 03:50:36;;;;;;;3.70;2.60;;;17.80;71.10;;;;;;5064375;28;20183;-52
2023/10/30 03:53:02;;;;;;;2.30;1.40;;;17.80;70.70;;;;;;5061254;28;20433;-50
2023/10/30 03:55:28;;;;;;;1.83;1.73;;;17.70;70.60;;;;;;5065451;28;20630;-53
2023/10/30 03:57:53;;;;;;;1.70;1.40;;;17.60;70.90;;;;;;5060976;28;20231;-50
2023/10/30 04:00:19;;;;;;;1.60;1.50;;;17.40;72.30;;;;;;5064877;28;20683;-50
2023/10/30 04:02:44;;;;;;;2.00;1.60;;;17.40;72.70;;;;;;5058059;28;20886;-49
2023/10/30 04:05:10;;;;;;;1.40;1.30;;;17.10;73.40;;;;;;5062140;28;20184;-51
2023/10/30 04:07:35;;;;;;;2.73;1.33;;;17.20;73.50;;;;;;5063175;28;20172;-49
2023/10/30 04:10:02;;;;;;;2.20;1.40;;;17.20;73.70;;;;;;5060263;28;20734;-52
2023/10/30 04:12:27;;;;;;;2.40;1.50;;;17.10;73.90;;;;;;5056420;28;20181;-51
2023/10/30 04:14:53;;;;;;;2.43;2.23;;;17.10;73.90;;;;;;5063799;28;21370;-51
2023/10/30 04:17:18;;;;;;;2.17;1.57;;;17.20;73.90;;;;;;5059747;28;20642;-51
2023/10/30 04:19:44;;;;;;;1.40;1.30;;;17.20;73.40;;;;;;5070686;28;20210;-52
2023/10/30 04:22:09;;;;;;;1.87;1.10;;;17.20;73.30;;;;;;5068030;28;20304;-50
2023/10/30 04:24:35;;;;;;;1.60;1.50;;;17.10;73.30;;;;;;5069921;28;20567;-52
2023/10/30 04:27:01;;;;;;;1.60;1.50;;;17.10;73.40;;;;;;5061511;28;20994;-51
2023/10/30 04:29:26;;;;;;;1.87;1.70;;;17.00;73.40;;;;;;5063091;28;20211;-50
2023/10/30 04:31:52;;;;;;;1.70;1.60;;;17.00;73.40;;;;;;5066613;28;20188;-48
2023/10/30 04:34:19;;;;;;;2.43;1.63;;;17.00;73.50;;;;;;5062007;28;20758;-50
2023/10/30 04:36:45;;;;;;;2.17;1.40;;;17.00;73.20;;;;;;5061714;28;20398;-51
2023/10/30 04:39:11;;;;;;;2.30;2.10;;;16.90;73.60;;;;;;5062711;28;20457;-50
2023/10/30 04:41:37;;;;;;;2.20;1.60;;;16.70;74.10;;;;;;5066003;28;20446;-51
2023/10/30 04:44:03;;;;;;;3.00;1.70;;;16.50;75.60;;;;;;5068482;28;20449;-48
2023/10/30 04:46:28;;;;;;;2.17;1.80;;;16.40;76.70;;;;;;5069261;28;20278;-52
2023/10/30 04:48:54;;;;;;;2.27;1.80;;;16.40;76.50;;;;;;5067749;28;20207;-49
2023/10/30 04:51:20;;;;;;;2.30;1.70;;;16.60;76.00;;;;;;5069656;28;20183;-48
2023/10/30 04:53:46;;;;;;;1.87;1.67;;;16.50;75.20;;;;;;5068128;28;20212;-50
2023/10/30 04:56:11;;;;;;;2.43;1.50;;;16.50;75.80;;;;;;5067660;28;20438;-50
2023/10/30 04:58:37;;;;;;;2.27;1.40;;;16.40;76.10;;;;;;5069412;28;20839;-48
2023/10/30 05:01:09;;;;;;;1.60;1.50;;;16.50;76.20;;;;;;5059000;28;20188;-48
2023/10/30 05:03:36;;;;;;;1.70;1.60;;;16.40;76.30;;;;;;5057679;28;20219;-50
2023/10/30 05:06:02;;;;;;;1.87;1.77;;;16.40;76.30;;;;;;5060591;28;20539;-49
2023/10/30 05:08:28;;;;;;;4.37;1.70;;;16.50;76.30;;;;;;5063923;28;20462;-51
2023/10/30 05:10:54;;;;;;;3.43;2.00;;;16.60;75.90;;;;;;5068278;28;20487;-51
2023/10/30 05:13:20;;;;;;;2.17;1.97;;;16.70;75.30;;;;;;5063311;28;20392;-50
2023/10/30 05:15:46;;;;;;;2.07;1.97;;;16.90;74.70;;;;;;5067871;28;20180;-51
2023/10/30 05:18:12;;;;;;;2.00;1.90;;;17.00;74.00;;;;;;5062102;28;20454;-53
2023/10/30 05:20:37;;;;;;;6.63;2.20;;;17.00;73.30;;;;;;5066966;28;20168;-51
2023/10/30 05:23:03;;;;;;;2.93;1.80;;;17.10;73.00;;;;;;5068962;28;20219;-48
2023/10/30 05:25:28;;;;;;;2.17;1.97;;;17.10;72.70;;;;;;5060579;28;20354;-51
2023/10/30 05:27:54;;;;;;;2.70;1.93;;;17.20;72.40;;;;;;5067827;28;20678;-50
2023/10/30 05:30:19;;;;;;;1.73;1.63;;;17.10;72.30;;;;;;5064421;28;20466;-52
2023/10/30 05:32:45;;;;;;;2.70;2.03;;;17.10;72.40;;;;;;5066215;28;20211;-51
2023/10/30 05:35:11;;;;;;;2.70;1.90;;;17.00;72.70;;;;;;5061636;28;20176;-50
2023/10/30 05:37:36;;;;;;;3.00;1.70;;;16.90;73.20;;;;;;5058104;28;20214;-50
2023/10/30 05:40:02;;;;;;;1.70;1.60;;;16.90;74.10;;;;;;5065791;28;20296;-50
2023/10/30 05:42:28;;;;;;;2.07;1.87;;;16.90;72.60;;;;;;5065495;28;20226;-51
2023/10/30 05:44:54;;;;;;;3.03;1.77;;;16.90;72.20;;;;;;5070007;28;20436;-51
2023/10/30 05:47:20;;;;;;;4.00;1.93;;;16.90;71.90;;;;;;5062197;28;20188;-52
2023/10/30 05:49:45;;;;;;;1.80;1.70;;;17.00;71.70;;;;;;5065146;28;20466;-49
2023/10/30 05:52:11;;;;;;;2.90;1.90;;;17.00;71.30;;;;;;5059504;28;20233;-47
2023/10/30 05:54:37;;;;;;;3.20;1.43;;;17.00;71.10;;;;;;5061982;28;20709;-50
2023/10/30 05:57:02;;;;;;;3.20;1.90;;;17.10;70.90;;;;;;5059116;28;20241;-54
2023/10/30 05:59:29;;;;;;;2.50;1.93;;;17.10;70.80;;;;;;5057125;28;20691;-53
2023/10/30 06:01:55;;;;;;;4.60;2.10;;;17.10;70.70;;;;;;5062188;28;20770;-52
2023/10/30 06:04:20;;;;;;;10.00;5.20;;;17.20;70.70;;;;;;5068358;28;20453;-52
2023/10/30 06:06:46;;;;;;;5.47;3.77;;;16.70;72.20;;;;;;5060787;28;20187;-54
2023/10/30 06:09:12;;;;;;;4.73;3.90;;;16.60;73.40;;;;;;5061246;28;20207;-51
2023/10/30 06:11:38;;;;;;;5.90;3.43;;;16.70;73.40;;;;;;5061085;28;20185;-54
2023/10/30 06:14:03;;;;;;;4.00;3.10;;;16.80;72.50;;;;;;5060920;28;20431;-48
2023/10/30 06:16:29;;;;;;;5.10;3.10;;;16.90;72.00;;;;;;5063635;28;20188;-53
2023/10/30 06:18:54;;;;;;;2.60;2.40;;;17.00;71.30;;;;;;5066500;28;20719;-52
2023/10/30 06:21:20;;;;;;;2.77;2.57;;;16.90;70.70;;;;;;5066921;28;20739;-53
2023/10/30 06:23:46;;;;;;;3.40;1.90;;;16.90;71.00;;;;;;5067579;28;20215;-49
2023/10/30 06:26:13;;;;;;;1.70;1.60;;;16.80;71.10;;;;;;5061934;28;20184;-51
2023/10/30 06:28:39;;;;;;;7.90;1.90;;;16.80;71.60;;;;;;5065844;28;20876;-52
2023/10/30 06:31:16;;;;;;;4.07;2.17;;;16.90;71.60;;;;;;5064309;28;20560;-50
2023/10/30 06:33:42;;;;;;;2.50;2.03;;;17.00;71.10;;;;;;5065099;28;20433;-53
2023/10/30 06:36:07;;;;;;;4.00;2.90;;;17.00;70.20;;;;;;5065842;28;20441;-51
2023/10/30 06:38:34;;;;;;;3.37;2.00;;;17.00;71.10;;;;;;5063929;28;20454;-51
2023/10/30 06:40:59;;;;;;;1.90;1.70;;;16.70;72.10;;;;;;5065861;28;20187;-51
2023/10/30 06:43:25;;;;;;;1.77;1.67;;;16.60;72.80;;;;;;5058954;28;20474;-49
2023/10/30 06:46:01;;;;;;;1.97;1.87;;;16.50;73.10;;;;;;5059333;28;20670;-56
2023/10/30 06:48:27;;;;;;;3.73;1.90;;;16.70;72.40;;;;;;5063548;28;20821;-51
2023/10/30 06:50:52;;;;;;;3.20;2.10;;;16.90;72.30;;;;;;5064910;28;20949;-50
2023/10/30 06:53:18;;;;;;;3.57;1.60;;;17.20;70.70;;;;;;5062041;28;20195;-51
2023/10/30 06:55:43;;;;;;;2.43;1.80;;;17.20;70.00;;;;;;5068301;28;20245;-50
2023/10/30 06:58:09;;;;;;;3.03;1.80;;;17.10;70.40;;;;;;5066798;28;20215;-50
2023/10/30 07:00:35;;;;;;;1.73;1.60;;;17.00;70.70;;;;;;5068572;28;20180;-50
2023/10/30 07:03:01;;;;;;;2.27;2.07;;;17.10;70.80;;;;;;5068619;28;20215;-52
2023/10/30 07:05:27;;;;;;;1.90;1.80;;;17.40;70.40;;;;;;5068109;28;20953;-51
2023/10/30 07:07:52;;;;;;;2.40;1.77;;;17.60;68.70;;;;;;5067686;28;20259;-52
2023/10/30 07:10:18;;;;;;;1.97;1.73;;;17.90;67.70;;;;;;5068616;28;20187;-52
2023/10/30 07:12:43;;;;;;;3.23;2.00;;;18.30;67.40;;;;;;5068279;28;20192;-51
2023/10/30 07:15:10;;;;;;;3.73;1.50;;;18.50;65.30;;;;;;5068369;28;20194;-55
2023/10/30 07:17:36;;;;;;;2.10;1.70;;;18.70;64.30;;;;;;5067612;28;20278;-52
2023/10/30 07:20:03;;;;;;;3.83;2.10;;;18.90;63.60;;;;;;5068513;28;21040;-50
2023/10/30 07:22:28;;;;;;;4.07;2.30;;;18.90;62.90;;;;;;5067209;28;20211;-52
2023/10/30 07:24:56;;;;;;;5.13;2.50;;;18.90;62.80;;;;;;5067600;28;20999;-50
2023/10/30 07:27:22;;;;;;;2.47;2.27;;;19.00;62.60;;;;;;5067549;28;20587;-55
2023/10/30 07:29:47;;;;;;;2.20;2.10;;;19.10;62.30;;;;;;5068176;28;20468;-51
2023/10/30 07:32:13;;;;;;;6.23;2.13;;;19.20;61.60;;;;;;5068165;28;20418;-48
2023/10/30 07:34:41;;;;;;;2.27;2.07;;;19.30;61.50;;;;;;5068281;28;20275;-54
2023/10/30 07:37:06;;;;;;;2.20;2.00;;;19.30;61.60;;;;;;5065167;28;20583;-50
2023/10/30 07:39:32;;;;;;;2.53;2.33;;;19.30;61.40;;;;;;5068076;28;20442;-50
2023/10/30 07:41:58;;;;;;;3.40;2.40;;;19.30;61.40;;;;;;5067991;28;20180;-50
2023/10/30 07:44:23;;;;;;;2.40;2.17;;;19.30;62.00;;;;;;5068440;28;20611;-52
2023/10/30 07:46:49;;;;;;;3.40;2.60;;;19.30;61.70;;;;;;5055119;28;20437;-51
2023/10/30 07:49:15;;;;;;;3.93;2.43;;;19.40;62.20;;;;;;5059811;28;20226;-52
2023/10/30 07:51:40;;;;;;;4.17;3.80;;;19.50;61.80;;;;;;5063007;28;20249;-53
2023/10/30 07:54:06;;;;;;;4.67;4.00;;;19.20;61.20;;;;;;5062256;28;20199;-53
2023/10/30 07:56:32;;;;;;;4.00;3.60;;;19.20;62.70;;;;;;5069189;28;20183;-49
2023/10/30 07:58:58;;;;;;;5.93;3.20;;;19.20;62.90;;;;;;5071327;28;20206;-52
2023/10/30 08:01:24;;;;;;;3.63;2.73;;;19.10;62.90;;;;;;5068803;28;20446;-55
2023/10/30 08:03:50;;;;;;;3.40;3.13;;;19.20;63.70;;;;;;5066853;28;20212;-55
2023/10/30 08:06:15;;;;;;;3.00;2.80;;;19.30;63.20;;;;;;5066460;28;20449;-52
2023/10/30 08:08:41;;;;;;;3.73;3.43;;;19.30;62.90;;;;;;5069504;28;20196;-54
2023/10/30 08:11:07;;;;;;;4.17;3.77;;;19.30;62.90;;;;;;5068686;28;20176;-55
2023/10/30 08:13:33;;;;;;;3.60;3.30;;;19.00;62.80;;;;;;5068402;28;20438;-54
2023/10/30 08:15:59;;;;;;;4.17;3.17;;;18.70;65.00;;;;;;5070392;28;20208;-55
2023/10/30 08:18:25;;;;;;;5.10;4.20;;;18.70;65.30;;;;;;5065869;28;21450;-56
2023/10/30 08:20:51;;;;;;;4.23;3.63;;;18.40;65.60;;;;;;5064506;28;20267;-55
2023/10/30 08:23:16;;;;;;;4.23;3.87;;;18.20;66.70;;;;;;5066532;28;20315;-56
2023/10/30 08:25:43;;;;;;;4.40;4.00;;;18.20;66.30;;;;;;5069215;28;20215;-54
2023/10/30 08:28:08;;;;;;;4.13;3.67;;;17.80;67.20;;;;;;5071018;28;20180;-54
2023/10/30 08:30:34;;;;;;;4.40;3.97;;;18.00;68.80;;;;;;5071483;28;20813;-52
2023/10/30 08:33:03;;;;;;;5.10;4.60;;;18.30;67.80;;;;;;5070518;28;20184;-53
2023/10/30 08:35:29;;;;;;;6.90;4.00;;;18.40;67.00;;;;;;5071224;28;20219;-55
2023/10/30 08:37:57;;;;;;;4.57;4.17;;;18.70;66.30;;;;;;5070967;28;20457;-55
2023/10/30 08:40:23;;;;;;;3.77;3.47;;;18.70;65.10;;;;;;5071183;28;20198;-56
2023/10/30 08:42:49;;;;;;;3.70;3.40;;;18.80;64.90;;;;;;5071122;28;20564;-56
2023/10/30 08:45:15;;;;;;;3.93;3.50;;;18.80;64.20;;;;;;5071401;28;21144;-55
2023/10/30 08:47:40;;;;;;;4.60;4.10;;;18.40;66.00;;;;;;5069963;28;20200;-54
2023/10/30 08:50:07;;;;;;;3.60;3.30;;;18.40;66.00;;;;;;5071058;28;20441;-51
2023/10/30 08:52:33;;;;;;;3.30;3.00;;;18.60;66.00;;;;;;5070801;28;20317;-52
2023/10/30 08:54:59;;;;;;;4.10;3.47;;;18.50;65.20;;;;;;5071081;28;20446;-51
2023/10/30 08:57:24;;;;;;;4.10;3.53;;;18.50;65.50;;;;;;5070116;28;20303;-51
2023/10/30 08:59:50;;;;;;;3.33;3.03;;;18.60;65.00;;;;;;5070907;28;20204;-49
2023/10/30 09:02:16;;;;;;;4.03;3.73;;;18.90;64.50;;;;;;5069454;28;20219;-47
2023/10/30 09:04:41;;;;;;;3.43;3.13;;;19.10;63.40;;;;;;5069975;28;20671;-52
2023/10/30 09:07:07;;;;;;;3.37;3.07;;;19.40;62.90;;;;;;5065670;28;20176;-50
2023/10/30 09:09:35;;;;;;;3.53;3.20;;;19.40;62.30;;;;;;5069613;28;20215;-49
2023/10/30 09:12:01;;;;;;;5.53;2.90;;;19.40;61.50;;;;;;5066751;28;20535;-54
2023/10/30 09:14:26;;;;;;;3.13;2.87;;;19.50;62.00;;;;;;5069323;28;20458;-50
2023/10/30 09:16:52;;;;;;;3.40;3.10;;;19.70;60.70;;;;;;5069604;28;20187;-48
2023/10/30 09:19:18;;;;;;;2.80;2.60;;;19.70;61.30;;;;;;5069848;28;20200;-51
2023/10/30 09:21:44;;;;;;;2.80;2.60;;;19.80;60.90;;;;;;5069180;28;21072;-50
2023/10/30 09:24:09;;;;;;;6.90;2.50;;;20.10;60.80;;;;;;5070709;28;20211;-51
2023/10/30 09:26:35;;;;;;;2.53;2.33;;;20.30;59.70;;;;;;5069095;28;20191;-49
2023/10/30 09:29:01;;;;;;;2.87;2.47;;;20.30;59.40;;;;;;5070331;28;20196;-50
2023/10/30 09:31:30;;;;;;;2.33;2.17;;;20.40;59.10;;;;;;5069645;28;20184;-49
2023/10/30 09:33:56;;;;;;;2.33;2.13;;;20.50;58.70;;;;;;5068981;28;20211;-52
2023/10/30 09:36:22;;;;;;;4.10;2.20;;;20.30;58.90;;;;;;5067925;28;20442;-50
2023/10/30 09:38:47;;;;;;;3.37;2.10;;;20.40;58.80;;;;;;5068885;28;20465;-50
2023/10/30 09:41:18;;;;;;;2.30;1.60;;;20.40;58.40;;;;;;5059204;28;20252;-53
2023/10/30 09:43:47;;;;;;;2.33;1.90;;;20.70;58.50;;;;;;5060507;28;20240;-51
2023/10/30 09:46:14;;;;;;;1.93;1.73;;;20.70;58.20;;;;;;5057921;28;20438;-51
2023/10/30 09:48:42;;;;;;;3.37;2.00;;;20.50;58.80;;;;;;5063735;28;20450;-52
2023/10/30 09:51:08;;;;;;;2.40;2.10;;;20.20;59.10;;;;;;5061571;28;20438;-54
2023/10/30 09:53:36;;;;;;;1.83;1.73;;;20.20;59.40;;;;;;5058795;28;20518;-52
2023/10/30 09:56:03;;;;;;;1.83;1.73;;;20.30;59.40;;;;;;5057500;28;20462;-52
2023/10/30 09:58:30;;;;;;;2.10;1.90;;;20.20;59.30;;;;;;5061077;28;20450;-52
2023/10/30 10:00:57;;;;;;;2.87;1.70;;;20.30;59.30;;;;;;5066237;28;20446;-52
2023/10/30 10:03:23;;;;;;;2.63;1.50;;;20.30;59.30;;;;;;5064935;28;21131;-54
2023/10/30 10:05:56;;;;;;;2.67;1.73;;;20.30;59.30;;;;;;5061876;28;20556;-54
2023/10/30 10:08:22;;;;;;;1.87;1.63;;;20.30;58.90;;;;;;5057520;28;20200;-51
2023/10/30 10:11:01;;;;;;;1.90;1.70;;;20.50;58.90;;;;;;5060186;28;20574;-49
2023/10/30 10:13:32;;;;;;;2.13;1.60;;;20.30;58.60;;;;;;5064838;28;20445;-50
2023/10/30 10:15:58;;;;;;;1.63;1.53;;;20.40;58.80;;;;;;5061889;28;20442;-51
2023/10/30 10:18:31;;;;;;;2.50;1.40;;;20.40;58.50;;;;;;5066875;28;20462;-53
2023/10/30 10:21:00;;;;;;;1.70;1.40;;;20.70;58.20;;;;;;5060337;28;20496;-48
2023/10/30 10:23:31;;;;;;;1.47;1.33;;;20.90;57.60;;;;;;5065697;28;20488;-52
2023/10/30 10:25:58;;;;;;;2.93;1.10;;;20.80;57.50;;;;;;5058504;28;20817;-51
2023/10/30 10:28:25;;;;;;;1.57;1.40;;;20.70;57.10;;;;;;5063751;28;21177;-50
2023/10/30 10:30:52;;;;;;;1.50;1.40;;;20.60;57.30;;;;;;5064081;28;21074;-50
2023/10/30 10:33:20;;;;;;;1.40;1.30;;;20.60;57.50;;;;;;5064381;28;20438;-50
2023/10/30 10:36:01;;;;;;;1.00;0.90;;;20.60;57.50;;;;;;5060881;28;21124;-47
2023/10/30 10:38:27;;;;;;;1.30;1.20;;;20.80;57.40;;;;;;5061961;28;20514;-49
2023/10/30 10:40:55;;;;;;;1.27;1.17;;;20.90;57.10;;;;;;5065199;28;21273;-52
2023/10/30 10:43:22;;;;;;;1.37;1.20;;;20.90;56.70;;;;;;5059924;28;20231;-49
2023/10/30 10:45:49;;;;;;;1.63;1.53;;;20.60;57.00;;;;;;5067564;28;20437;-48
2023/10/30 10:48:16;;;;;;;2.10;1.20;;;20.70;56.90;;;;;;5059935;28;20466;-50
2023/10/30 10:50:42;;;;;;;3.27;1.20;;;20.60;56.80;;;;;;5061995;28;20906;-50
2023/10/30 10:53:10;;;;;;;2.33;1.10;;;20.40;56.90;;;;;;5066551;28;20910;-50
2023/10/30 10:55:40;;;;;;;1.13;1.03;;;20.40;57.00;;;;;;5068494;28;20503;-50
2023/10/30 10:58:09;;;;;;;2.80;1.30;;;20.40;57.00;;;;;;5064249;28;20438;-50
2023/10/30 11:00:44;;;;;;;1.93;1.40;;;20.20;56.90;;;;;;5066735;28;20945;-50
2023/10/30 11:03:10;;;;;;;1.30;1.20;;;20.10;57.00;;;;;;5065538;28;20515;-49
2023/10/30 11:05:37;;;;;;;1.60;1.33;;;19.90;57.20;;;;;;5058532;28;20479;-50
2023/10/30 11:08:31;;;;;;;1.30;1.20;;;19.80;57.80;;;;;;5063304;28;20485;-53
2023/10/30 11:11:22;;;;;;;1.20;1.10;;;20.30;57.10;;;;;;5064579;28;20435;-51
2023/10/30 11:14:14;;;;;;;5.07;1.10;;;20.20;57.20;;;;;;5067099;28;20450;-52
2023/10/30 11:16:52;;;;;;;1.43;1.00;;;20.10;56.40;;;;;;5063995;28;20554;-50
2023/10/30 11:19:19;;;;;;;2.03;1.30;;;20.00;56.80;;;;;;5066331;28;20450;-53
2023/10/30 11:21:50;;;;;;;1.27;1.17;;;20.00;56.80;;;;;;5065125;28;20796;-50
2023/10/30 11:24:36;;;;;;;2.60;1.43;;;20.00;56.70;;;;;;5066940;28;21067;-48
2023/10/30 11:27:25;;;;;;;1.30;1.20;;;20.00;56.80;;;;;;5060616;28;20429;-52
2023/10/30 11:29:59;;;;;;;2.60;1.17;;;19.80;57.20;;;;;;5062753;28;20458;-54
2023/10/30 11:32:26;;;;;;;4.03;1.40;;;19.80;57.20;;;;;;5063382;28;20449;-51
2023/10/30 11:34:52;;;;;;;3.67;1.30;;;19.80;56.80;;;;;;5065359;28;20442;-52
2023/10/30 11:37:21;;;;;;;5.50;1.27;;;20.00;57.00;;;;;;5067256;28;20491;-52
2023/10/30 11:39:49;;;;;;;2.23;1.43;;;20.20;56.60;;;;;;5061500;28;20242;-52
2023/10/30 11:42:24;;;;;;;4.13;1.27;;;20.50;55.80;;;;;;5065913;28;20474;-52
2023/10/30 11:44:51;;;;;;;1.60;1.20;;;20.50;55.70;;;;;;5066312;28;20773;-52
2023/10/30 11:47:23;;;;;;;1.47;1.37;;;20.40;55.50;;;;;;5064815;28;20450;-51
2023/10/30 11:49:48;;;;;;;1.33;1.23;;;20.30;55.40;;;;;;5066100;28;21150;-54
2023/10/30 11:52:14;;;;;;;2.00;1.37;;;20.10;55.90;;;;;;5065428;28;20440;-48
2023/10/30 11:54:44;;;;;;;2.60;1.50;;;20.10;56.50;;;;;;5055485;28;20571;-53
2023/10/30 11:57:11;;;;;;;1.63;1.50;;;20.30;56.50;;;;;;5060736;28;22017;-50
2023/10/30 11:59:37;;;;;;;1.60;1.50;;;20.40;55.50;;;;;;5066111;28;20461;-55
2023/10/30 12:02:05;;;;;;;1.60;1.50;;;20.30;55.70;;;;;;5063319;28;20826;-51
2023/10/30 12:04:32;;;;;;;1.30;1.20;;;20.50;55.50;;;;;;5064912;28;20719;-53
2023/10/30 12:06:58;;;;;;;1.70;1.20;;;20.40;55.30;;;;;;5055274;28;20449;-53
2023/10/30 12:09:25;;;;;;;2.67;1.63;;;20.40;55.20;;;;;;5063333;28;20470;-55
2023/10/30 12:11:51;;;;;;;2.07;1.70;;;20.30;55.00;;;;;;5063271;28;20287;-51
2023/10/30 12:14:19;;;;;;;1.40;1.30;;;20.20;55.50;;;;;;5064303;28;20438;-55
2023/10/30 12:16:51;;;;;;;1.77;1.63;;;20.20;55.80;;;;;;5064615;28;20438;-50
2023/10/30 12:19:23;;;;;;;1.60;1.50;;;20.20;56.10;;;;;;5066880;28;20442;-55
2023/10/30 12:21:50;;;;;;;2.00;1.80;;;20.40;56.00;;;;;;5063139;28;20426;-54
2023/10/30 12:24:17;;;;;;;1.57;1.37;;;20.30;55.00;;;;;;5064221;28;20474;-49
2023/10/30 12:26:42;;;;;;;4.20;1.70;;;20.30;55.60;;;;;;5062942;28;20447;-53
2023/10/30 12:29:09;;;;;;;1.20;1.10;;;20.40;55.80;;;;;;5066695;28;21077;-52
2023/10/30 12:31:35;;;;;;;1.83;1.30;;;20.40;55.80;;;;;;5064619;28;20193;-51
2023/10/30 12:34:18;;;;;;;3.63;1.87;;;20.70;55.60;;;;;;5065228;28;20457;-50
2023/10/30 12:36:43;;;;;;;2.80;1.40;;;20.90;55.00;;;;;;5064916;28;20738;-52
2023/10/30 12:39:19;;;;;;;3.23;1.50;;;20.90;55.00;;;;;;5067386;28;20572;-53
2023/10/30 12:41:46;;;;;;;1.60;1.50;;;20.70;54.00;;;;;;5064647;28;20317;-49
2023/10/30 12:44:15;;;;;;;2.13;1.30;;;20.60;55.20;;;;;;5069232;28;21116;-55
2023/10/30 12:46:41;;;;;;;1.40;1.30;;;20.60;55.30;;;;;;5068441;28;20433;-53